createdAt,value
2023-08-11T00:02:13.084Z,96.5
2023-08-11T00:04:39.092Z,96.3
2023-08-11T00:07:05.187Z,96.1
2023-08-11T00:09:31.257Z,95.9
2023-08-11T00:11:57.359Z,95.6
2023-08-11T00:14:23.483Z,96.3
2023-08-11T00:16:49.538Z,96.4
2023-08-11T00:19:15.666Z,96.8
2023-08-11T00:21:41.751Z,97.4
2023-08-11T00:24:07.839Z,97.5
2023-08-11T00:26:32.939Z,97.4
2023-08-11T00:28:59.041Z,97.2
2023-08-11T00:31:25.138Z,97.3
2023-08-11T00:33:51.226Z,97.1
2023-08-11T00:36:17.320Z,97.8
2023-08-11T00:38:43.420Z,98.5
2023-08-11T00:41:09.519Z,98.9
2023-08-11T00:43:35.598Z,99.1
2023-08-11T00:46:01.701Z,99.3
2023-08-11T00:48:27.809Z,99.3
2023-08-11T00:50:53.900Z,99.2
2023-08-11T00:53:19.985Z,98.8
2023-08-11T00:55:46.076Z,98.7
2023-08-11T00:58:11.205Z,99
2023-08-11T01:00:37.283Z,99.1
2023-08-11T01:03:03.391Z,99.4
2023-08-11T01:05:29.472Z,99.1
2023-08-11T01:07:55.580Z,99.3
2023-08-11T01:10:20.687Z,99.7
2023-08-11T01:12:46.779Z,100
2023-08-11T01:15:12.885Z,100
2023-08-11T01:17:38.997Z,99.8
2023-08-11T01:20:05.071Z,99.4
2023-08-11T01:22:31.250Z,99
2023-08-11T01:24:57.278Z,99
2023-08-11T01:27:23.371Z,99.1
2023-08-11T01:29:49.489Z,99.4
2023-08-11T01:32:15.557Z,99.6
2023-08-11T01:34:41.660Z,100
2023-08-11T01:37:07.765Z,99.6
2023-08-11T01:39:33.852Z,99.8
2023-08-11T01:41:58.965Z,99.8
2023-08-11T01:44:25.055Z,99.7
2023-08-11T01:46:51.159Z,99.4
2023-08-11T01:49:17.248Z,99.7
2023-08-11T01:51:43.343Z,100
2023-08-11T01:54:09.438Z,100
2023-08-11T01:56:35.545Z,100
2023-08-11T01:59:01.631Z,100
2023-08-11T02:01:27.722Z,100
2023-08-11T02:03:53.834Z,100
2023-08-11T02:06:19.927Z,100
2023-08-11T02:08:46.018Z,100
2023-08-11T02:11:12.172Z,100
2023-08-11T02:13:37.207Z,100
2023-08-11T02:16:03.315Z,100
2023-08-11T02:18:29.396Z,100
2023-08-11T02:20:55.506Z,100
2023-08-11T02:23:21.590Z,100
2023-08-11T02:25:47.697Z,100
2023-08-11T02:28:13.792Z,100
2023-08-11T02:30:39.923Z,100
2023-08-11T02:33:05.978Z,100
2023-08-11T02:35:32.068Z,100
2023-08-11T02:37:58.160Z,100
2023-08-11T02:40:24.257Z,100
2023-08-11T02:42:50.377Z,100
2023-08-11T02:45:15.468Z,100
2023-08-11T02:47:41.552Z,100
2023-08-11T02:50:07.658Z,100
2023-08-11T02:52:33.753Z,100
2023-08-11T02:54:59.856Z,100
2023-08-11T02:57:26.014Z,100
2023-08-11T02:59:52.036Z,100
2023-08-11T03:02:18.130Z,100
2023-08-11T03:04:44.212Z,100
2023-08-11T03:07:10.320Z,100
2023-08-11T03:09:36.404Z,100
2023-08-11T03:12:02.494Z,100
2023-08-11T03:14:28.593Z,100
2023-08-11T03:16:53.717Z,100
2023-08-11T03:19:19.809Z,100
2023-08-11T03:21:45.887Z,100
2023-08-11T03:24:11.995Z,100
2023-08-11T03:26:38.089Z,100
2023-08-11T03:29:04.186Z,100
2023-08-11T03:31:30.267Z,100
2023-08-11T03:33:56.370Z,100
2023-08-11T03:36:22.466Z,100
2023-08-11T03:38:48.586Z,100
2023-08-11T03:41:14.660Z,100
2023-08-11T03:43:40.777Z,100
2023-08-11T03:46:06.888Z,100
2023-08-11T03:48:31.957Z,100
2023-08-11T03:50:58.054Z,100
2023-08-11T03:53:24.176Z,100
2023-08-11T03:55:50.237Z,100
2023-08-11T03:58:16.333Z,100
2023-08-11T04:00:42.436Z,100
2023-08-11T04:03:08.520Z,100
2023-08-11T04:05:34.624Z,100
2023-08-11T04:08:00.709Z,100
2023-08-11T04:10:26.820Z,100
2023-08-11T04:12:52.912Z,100
2023-08-11T04:15:19.011Z,100
2023-08-11T04:17:45.085Z,100
2023-08-11T04:20:10.224Z,100
2023-08-11T04:22:36.317Z,100
2023-08-11T04:25:02.410Z,100
2023-08-11T04:27:28.482Z,100
2023-08-11T04:29:54.602Z,100
2023-08-11T04:32:20.690Z,100
2023-08-11T04:34:46.769Z,100
2023-08-11T04:37:12.866Z,100
2023-08-11T04:39:38.984Z,100
2023-08-11T04:42:05.048Z,100
2023-08-11T04:44:31.153Z,100
2023-08-11T04:46:57.239Z,100
2023-08-11T04:49:23.350Z,100
2023-08-11T04:51:48.438Z,100
2023-08-11T04:54:14.563Z,100
2023-08-11T04:56:40.631Z,100
2023-08-11T04:59:06.728Z,100
2023-08-11T05:01:32.845Z,100
2023-08-11T05:03:58.931Z,100
2023-08-11T05:06:25.028Z,100
2023-08-11T05:08:51.118Z,100
2023-08-11T05:11:17.209Z,100
2023-08-11T05:13:43.301Z,100
2023-08-11T05:16:09.404Z,100
2023-08-11T05:18:35.503Z,100
2023-08-11T05:21:01.571Z,100
2023-08-11T05:23:26.718Z,100
2023-08-11T05:25:52.807Z,100
2023-08-11T05:28:18.916Z,99.7
2023-08-11T05:30:44.977Z,99.4
2023-08-11T05:33:11.085Z,99.2
2023-08-11T05:35:37.171Z,99.2
2023-08-11T05:38:03.303Z,99.1
2023-08-11T05:40:29.360Z,98.8
2023-08-11T05:42:55.447Z,98.3
2023-08-11T05:45:21.581Z,98
2023-08-11T05:47:47.661Z,97.8
2023-08-11T05:50:13.750Z,97.7
2023-08-11T05:52:39.950Z,97.6
2023-08-11T05:55:05.044Z,97.3
2023-08-11T05:57:31.071Z,97.3
2023-08-11T05:59:57.134Z,97
2023-08-11T06:02:23.230Z,96.8
2023-08-11T06:04:49.317Z,96.9
2023-08-11T06:07:15.440Z,96.6
2023-08-11T06:09:41.550Z,96.4
2023-08-11T06:12:07.609Z,96
2023-08-11T06:14:33.702Z,96
2023-08-11T06:16:59.796Z,96
2023-08-11T06:19:25.890Z,95.8
2023-08-11T06:21:51.982Z,95.7
2023-08-11T06:24:18.076Z,95.4
2023-08-11T06:26:43.245Z,95.3
2023-08-11T06:29:09.286Z,95
2023-08-11T06:31:35.536Z,94.6
2023-08-11T06:34:01.474Z,94.1
2023-08-11T06:36:27.572Z,94
2023-08-11T06:38:53.668Z,93.4
2023-08-11T06:41:19.778Z,93.1
2023-08-11T06:43:45.861Z,92.8
2023-08-11T06:46:11.966Z,92.7
2023-08-11T06:48:38.071Z,92.5
2023-08-11T06:51:04.223Z,92.4
2023-08-11T06:53:30.243Z,91.7
2023-08-11T06:55:56.350Z,91
2023-08-11T06:58:21.547Z,90.7
2023-08-11T07:00:47.556Z,90.7
2023-08-11T07:03:13.646Z,90
2023-08-11T07:05:39.745Z,90.2
2023-08-11T07:08:05.860Z,90.1
2023-08-11T07:10:31.954Z,89.7
2023-08-11T07:12:58.030Z,90
2023-08-11T07:15:24.125Z,89.6
2023-08-11T07:17:50.197Z,89.8
2023-08-11T07:20:16.392Z,89.3
2023-08-11T07:22:42.384Z,88.8
2023-08-11T07:25:08.535Z,88.6
2023-08-11T07:27:34.586Z,87.2
2023-08-11T07:29:59.690Z,87
2023-08-11T07:32:25.783Z,87.1
2023-08-11T07:34:51.882Z,86.5
2023-08-11T07:37:18.094Z,86
2023-08-11T07:39:44.164Z,85.5
2023-08-11T07:42:10.161Z,86
2023-08-11T07:44:36.243Z,85.2
2023-08-11T07:47:02.345Z,84.7
2023-08-11T07:49:28.459Z,84.6
2023-08-11T07:51:54.564Z,84.3
2023-08-11T07:54:20.796Z,82.8
2023-08-11T07:56:46.745Z,83.1
2023-08-11T07:59:12.834Z,82.8
2023-08-11T08:01:38.927Z,81.7
2023-08-11T08:04:05.026Z,81.3
2023-08-11T08:06:30.122Z,80.7
2023-08-11T08:08:56.265Z,81.2
2023-08-11T08:11:22.306Z,80.7
2023-08-11T08:13:48.415Z,80.7
2023-08-11T08:16:14.513Z,79.8
2023-08-11T08:18:40.611Z,79.3
2023-08-11T08:21:06.707Z,78.8
2023-08-11T08:23:32.806Z,79.1
2023-08-11T08:25:58.886Z,78.3
2023-08-11T08:28:24.994Z,78.6
2023-08-11T08:30:51.085Z,78.2
2023-08-11T08:33:17.180Z,78.4
2023-08-11T08:35:43.272Z,78
2023-08-11T08:38:08.424Z,77.8
2023-08-11T08:40:34.481Z,77.4
2023-08-11T08:43:00.563Z,77.5
2023-08-11T08:45:26.664Z,77.4
2023-08-11T08:47:52.756Z,76.3
2023-08-11T08:50:18.839Z,76.4
2023-08-11T08:52:44.963Z,76.3
2023-08-11T08:55:11.032Z,75.2
2023-08-11T08:57:37.117Z,75.2
2023-08-11T09:00:03.900Z,75.4
2023-08-11T09:02:29.325Z,74.1
2023-08-11T09:04:55.416Z,74.2
2023-08-11T09:07:21.502Z,73.3
2023-08-11T09:09:46.615Z,73.4
2023-08-11T09:12:12.710Z,72.5
2023-08-11T09:14:38.846Z,71.4
2023-08-11T09:17:04.914Z,71.8
2023-08-11T09:19:30.017Z,71
2023-08-11T09:21:56.101Z,71.3
2023-08-11T09:24:22.216Z,70.7
2023-08-11T09:26:48.318Z,69.3
2023-08-11T09:29:14.421Z,67.8
2023-08-11T09:31:40.485Z,69.1
2023-08-11T09:34:06.572Z,68.2
2023-08-11T09:36:32.680Z,68.7
2023-08-11T09:38:58.771Z,68.8
2023-08-11T09:41:24.871Z,67.7
2023-08-11T09:43:50.959Z,67.6
2023-08-11T09:46:17.123Z,68
2023-08-11T09:48:43.176Z,66.6
2023-08-11T09:51:08.260Z,67.6
2023-08-11T09:53:34.364Z,66.9
2023-08-11T09:56:00.451Z,68.3
2023-08-11T09:58:26.669Z,66.7
2023-08-11T10:00:52.855Z,65.9
2023-08-11T10:03:18.823Z,65.3
2023-08-11T10:05:44.946Z,65.9
2023-08-11T10:08:11.112Z,66.3
2023-08-11T10:10:37.094Z,66.2
2023-08-11T10:13:03.125Z,65.3
2023-08-11T10:15:29.250Z,65.8
2023-08-11T10:17:55.359Z,65.3
2023-08-11T10:20:21.399Z,65.5
2023-08-11T10:22:46.528Z,64.5
2023-08-11T10:25:12.633Z,64.5
2023-08-11T10:27:38.697Z,64.6
2023-08-11T10:30:04.845Z,65
2023-08-11T10:32:30.877Z,65
2023-08-11T10:34:56.971Z,63.5
2023-08-11T10:37:23.090Z,62.9
2023-08-11T10:39:49.179Z,62
2023-08-11T10:42:15.296Z,61.4
2023-08-11T10:44:41.363Z,63
2023-08-11T10:47:07.454Z,62.8
2023-08-11T10:49:33.555Z,63.1
2023-08-11T10:51:59.651Z,62.6
2023-08-11T10:54:24.770Z,62.5
2023-08-11T10:56:50.855Z,61.8
2023-08-11T10:59:16.936Z,61.8
2023-08-11T11:01:43.043Z,61.3
2023-08-11T11:04:09.206Z,61
2023-08-11T11:06:35.224Z,61.7
2023-08-11T11:09:01.327Z,60.9
2023-08-11T11:11:27.514Z,60.9
2023-08-11T11:13:53.528Z,59
2023-08-11T11:16:19.606Z,59.4
2023-08-11T11:18:45.702Z,59.5
2023-08-11T11:21:11.805Z,60.1
2023-08-11T11:23:37.870Z,59.4
2023-08-11T11:26:02.999Z,59.5
2023-08-11T11:28:29.169Z,59.6
2023-08-11T11:30:55.187Z,59.1
2023-08-11T11:33:21.296Z,58.8
2023-08-11T11:35:47.383Z,58.1
2023-08-11T11:38:13.471Z,58.6
2023-08-11T11:40:39.573Z,58.7
2023-08-11T11:43:05.643Z,58.2
2023-08-11T11:45:31.759Z,57.8
2023-08-11T11:47:57.863Z,56.8
2023-08-11T11:50:23.982Z,56.5
2023-08-11T11:52:50.045Z,55.8
2023-08-11T11:55:16.142Z,56
2023-08-11T11:57:41.262Z,55.7
2023-08-11T12:00:07.355Z,55.3
2023-08-11T12:02:33.448Z,55.7
2023-08-11T12:04:59.538Z,55.8
2023-08-11T12:07:25.624Z,55.6
2023-08-11T12:09:51.718Z,55.3
2023-08-11T12:12:17.821Z,56
2023-08-11T12:14:43.936Z,55
2023-08-11T12:17:10.021Z,54.5
2023-08-11T12:19:36.139Z,55.3
2023-08-11T12:22:02.206Z,54.4
2023-08-11T12:24:28.291Z,53.9
2023-08-11T12:26:54.420Z,53.2
2023-08-11T12:29:19.646Z,53.1
2023-08-11T12:31:45.602Z,51.8
2023-08-11T12:34:11.702Z,52.8
2023-08-11T12:36:37.804Z,52.2
2023-08-11T12:39:03.886Z,51.8
2023-08-11T12:41:29.986Z,51.2
2023-08-11T12:43:56.060Z,52.1
2023-08-11T12:46:22.181Z,51.5
2023-08-11T12:48:48.265Z,50.9
2023-08-11T12:51:14.351Z,51.7
2023-08-11T12:53:40.440Z,51.4
2023-08-11T12:56:06.551Z,50.1
2023-08-11T12:58:32.717Z,49.3
2023-08-11T13:00:57.792Z,49.2
2023-08-11T13:03:23.850Z,48.4
2023-08-11T13:05:49.951Z,47.7
2023-08-11T13:08:16.057Z,47
2023-08-11T13:10:42.171Z,46.6
2023-08-11T13:13:08.259Z,47
2023-08-11T13:15:34.349Z,45.4
2023-08-11T13:18:00.448Z,45.1
2023-08-11T13:20:26.543Z,44.4
2023-08-11T13:22:52.617Z,44.2
2023-08-11T13:25:18.708Z,44.5
2023-08-11T13:27:44.859Z,43.6
2023-08-11T13:30:10.909Z,43.1
2023-08-11T13:32:36.117Z,43.3
2023-08-11T13:35:02.142Z,42.8
2023-08-11T13:37:28.232Z,44.6
2023-08-11T13:39:54.319Z,44.9
2023-08-11T13:42:20.458Z,43.1
2023-08-11T13:44:46.509Z,43.3
2023-08-11T13:47:12.604Z,41.5
2023-08-11T13:49:38.697Z,44
2023-08-11T13:52:04.791Z,44.2
2023-08-11T13:54:30.893Z,44
2023-08-11T13:56:56.982Z,41.5
2023-08-11T13:59:23.077Z,41.2
2023-08-11T14:01:49.165Z,42
2023-08-11T14:04:14.314Z,41.2
2023-08-11T14:06:40.379Z,39.6
2023-08-11T14:09:06.485Z,41.7
2023-08-11T14:11:32.606Z,40.3
2023-08-11T14:13:58.711Z,41
2023-08-11T14:16:24.778Z,40.6
2023-08-11T14:18:50.940Z,40.9
2023-08-11T14:21:16.974Z,40.7
2023-08-11T14:23:43.073Z,42.7
2023-08-11T14:26:09.193Z,41.7
2023-08-11T14:28:35.259Z,41.1
2023-08-11T14:31:01.352Z,42.8
2023-08-11T14:33:27.451Z,41.8
2023-08-11T14:35:52.569Z,40.1
2023-08-11T14:38:18.667Z,40.4
2023-08-11T14:40:44.860Z,41.8
2023-08-11T14:43:10.855Z,41.3
2023-08-11T14:45:36.972Z,41.7
2023-08-11T14:48:03.050Z,41
2023-08-11T14:50:29.158Z,40.6
2023-08-11T14:52:55.255Z,39.2
2023-08-11T14:55:21.352Z,40.3
2023-08-11T14:57:47.438Z,40.3
2023-08-11T15:00:13.637Z,41.6
2023-08-11T15:02:39.646Z,41.5
2023-08-11T15:05:05.736Z,42.4
2023-08-11T15:07:30.869Z,43.7
2023-08-11T15:09:56.971Z,42.3
2023-08-11T15:12:23.039Z,41.6
2023-08-11T15:14:49.152Z,42.6
2023-08-11T15:17:15.244Z,42.5
2023-08-11T15:19:41.361Z,42.7
2023-08-11T15:22:07.424Z,43.4
2023-08-11T15:24:33.531Z,44.9
2023-08-11T15:26:59.620Z,46.4
2023-08-11T15:29:25.738Z,46.8
2023-08-11T15:31:51.834Z,45.5
2023-08-11T15:34:17.925Z,44.3
2023-08-11T15:36:44.035Z,43.6
2023-08-11T15:39:09.142Z,44.1
2023-08-11T15:41:35.224Z,42.5
2023-08-11T15:44:01.321Z,42
2023-08-11T15:46:27.449Z,43.6
2023-08-11T15:48:53.530Z,44
2023-08-11T15:51:19.641Z,44.7
2023-08-11T15:53:45.721Z,42
2023-08-11T15:56:11.814Z,42.1
2023-08-11T15:58:37.985Z,41.2
2023-08-11T16:01:04.008Z,42.5
2023-08-11T16:03:30.116Z,42.5
2023-08-11T16:05:56.219Z,42.5
2023-08-11T16:10:48.461Z,42
2023-08-11T16:13:13.532Z,41.5
2023-08-11T16:15:39.604Z,41.5
2023-08-11T16:18:05.710Z,43
2023-08-11T16:20:31.900Z,42.4
2023-08-11T16:22:57.905Z,41.5
2023-08-11T16:25:24.005Z,41.6
2023-08-11T16:27:50.101Z,42.8
2023-08-11T16:30:16.205Z,43.1
2023-08-11T16:32:42.309Z,42.7
2023-08-11T16:35:08.408Z,43
2023-08-11T16:37:34.486Z,41.8
2023-08-11T16:40:00.596Z,43.8
2023-08-11T16:42:26.686Z,44.7
2023-08-11T16:44:51.809Z,47.4
2023-08-11T16:47:17.896Z,45.4
2023-08-11T16:49:43.994Z,44.5
2023-08-11T16:52:10.140Z,43.7
2023-08-11T16:54:36.186Z,44.7
2023-08-11T16:57:02.303Z,46.2
2023-08-11T16:59:28.391Z,44.4
2023-08-11T17:01:54.490Z,46.4
2023-08-11T17:04:20.593Z,49.6
2023-08-11T17:06:46.689Z,49.9
2023-08-11T17:09:12.781Z,53.7
2023-08-11T17:11:38.873Z,55.4
2023-08-11T17:14:04.963Z,57
2023-08-11T17:16:30.089Z,56
2023-08-11T17:18:56.189Z,56.6
2023-08-11T17:21:22.272Z,55
2023-08-11T17:23:48.364Z,57.8
2023-08-11T17:26:14.485Z,56.8
2023-08-11T17:28:39.578Z,56.6
2023-08-11T17:31:05.678Z,58
2023-08-11T17:33:31.795Z,59.7
2023-08-11T17:35:57.861Z,60.2
2023-08-11T17:38:23.978Z,61
2023-08-11T17:40:50.118Z,63.2
2023-08-11T17:43:16.175Z,65
2023-08-11T17:48:08.355Z,67.9
2023-08-11T17:50:34.446Z,65.2
2023-08-11T17:53:00.533Z,67.4
2023-08-11T17:55:26.636Z,68.7
2023-08-11T17:57:52.739Z,67.8
2023-08-11T18:00:17.857Z,71.3
2023-08-11T18:02:44.046Z,70.5
2023-08-11T18:05:10.038Z,70.3
2023-08-11T18:07:36.122Z,71.5
2023-08-11T18:10:02.233Z,72.5
2023-08-11T18:12:28.392Z,73.1
2023-08-11T18:14:54.416Z,73.6
2023-08-11T18:17:20.541Z,74
2023-08-11T18:19:46.609Z,74.3
2023-08-11T18:22:12.708Z,74
2023-08-11T18:24:38.809Z,75.5
2023-08-11T18:27:04.905Z,75.8
2023-08-11T18:29:30.999Z,75.3
2023-08-11T18:31:56.118Z,75.5
2023-08-11T18:34:22.193Z,76
2023-08-11T18:36:48.294Z,76.6
2023-08-11T18:39:14.437Z,76.9
2023-08-11T18:41:40.481Z,77.3
2023-08-11T18:44:06.581Z,77.8
2023-08-11T18:46:32.736Z,78.9
2023-08-11T18:48:58.784Z,79.1
2023-08-11T18:51:24.907Z,79.9
2023-08-11T18:53:50.967Z,79.5
2023-08-11T18:56:17.062Z,79.8
2023-08-11T18:58:43.161Z,80.5
2023-08-11T19:01:09.242Z,80.5
2023-08-11T19:03:34.352Z,80.9
2023-08-11T19:06:00.514Z,79.9
2023-08-11T19:08:26.554Z,80.3
2023-08-11T19:10:52.629Z,81.2
2023-08-11T19:13:18.730Z,81.3
2023-08-11T19:15:44.847Z,81.6
2023-08-11T19:18:10.927Z,81.7
2023-08-11T19:20:37.019Z,82
2023-08-11T19:23:03.109Z,81.8
2023-08-11T19:25:29.203Z,82.5
2023-08-11T19:27:55.306Z,82.5
2023-08-11T19:30:21.392Z,82.3
2023-08-11T19:32:47.484Z,82.8
2023-08-11T19:35:12.669Z,83
2023-08-11T19:37:38.707Z,83.5
2023-08-11T19:40:04.841Z,83.7
2023-08-11T19:42:30.887Z,84
2023-08-11T19:44:56.974Z,84.1
2023-08-11T19:47:23.065Z,84.3
2023-08-11T19:49:49.177Z,84.1
2023-08-11T19:52:15.266Z,84.1
2023-08-11T19:54:41.419Z,84.7
2023-08-11T19:57:07.479Z,84.7
2023-08-11T19:59:33.714Z,84.8
2023-08-11T20:01:59.667Z,85.4
2023-08-11T20:04:25.753Z,85.3
2023-08-11T20:06:50.852Z,85.7
2023-08-11T20:09:16.929Z,85.7
2023-08-11T20:11:43.030Z,85.6
2023-08-11T20:14:09.158Z,86
2023-08-11T20:16:35.227Z,86.1
2023-08-11T20:19:01.332Z,86.3
2023-08-11T20:21:27.426Z,86.7
2023-08-11T20:23:53.564Z,86.8
2023-08-11T20:28:45.701Z,87.3
2023-08-11T20:31:11.918Z,87.3
2023-08-11T20:33:37.924Z,87.6
2023-08-11T20:36:03.989Z,87.7
2023-08-11T20:38:29.181Z,88
2023-08-11T20:40:55.195Z,88.2
2023-08-11T20:43:21.274Z,88.5
2023-08-11T20:45:47.371Z,89.1
2023-08-11T20:48:13.496Z,89.4
2023-08-11T20:50:39.585Z,89.6
2023-08-11T20:53:05.655Z,89.7
2023-08-11T20:55:31.756Z,89.7
2023-08-11T20:57:57.852Z,89.7
2023-08-11T21:00:23.944Z,89.7
2023-08-11T21:02:50.050Z,90.1
2023-08-11T21:05:16.163Z,90.2
2023-08-11T21:07:42.244Z,90.3
2023-08-11T21:10:07.340Z,90.4
2023-08-11T21:12:33.427Z,90.5
2023-08-11T21:14:59.515Z,91.3
2023-08-11T21:17:25.625Z,92.3
2023-08-11T21:19:51.729Z,92.5
2023-08-11T21:22:17.814Z,93
2023-08-11T21:27:09.997Z,100
2023-08-11T21:29:36.093Z,93.5
2023-08-11T21:32:02.196Z,93.3
2023-08-11T21:34:28.291Z,93
2023-08-11T21:36:54.391Z,93.2
2023-08-11T21:39:20.491Z,93.4
2023-08-11T21:41:45.600Z,93.3
2023-08-11T21:44:11.688Z,93.3
2023-08-11T21:46:37.784Z,93.3
2023-08-11T21:49:03.898Z,93.3
2023-08-11T21:51:30.068Z,93.3
2023-08-11T21:53:56.080Z,93.5
2023-08-11T21:56:22.172Z,93.6
2023-08-11T21:58:48.266Z,93.7
2023-08-11T22:01:14.366Z,93.8
2023-08-11T22:03:40.455Z,93.9
2023-08-11T22:06:06.559Z,94.1
2023-08-11T22:08:32.646Z,94.5
2023-08-11T22:10:58.731Z,94.8
2023-08-11T22:15:49.964Z,95.3
2023-08-11T22:18:16.047Z,95.5
2023-08-11T22:20:42.136Z,95.8
2023-08-11T22:23:08.243Z,95.7
2023-08-11T22:25:34.323Z,95.8
2023-08-11T22:28:00.430Z,95.8
2023-08-11T22:30:26.523Z,95.8
2023-08-11T22:32:52.612Z,96
2023-08-11T22:35:18.710Z,96.1
2023-08-11T22:37:44.837Z,96.2
2023-08-11T22:40:10.915Z,96.3
2023-08-11T22:42:37.003Z,96.6
2023-08-11T22:45:02.115Z,96.6
2023-08-11T22:47:28.194Z,96.9
2023-08-11T22:49:54.304Z,96.9
2023-08-11T22:52:20.423Z,96.9
2023-08-11T22:54:46.482Z,97
2023-08-11T22:57:12.690Z,97
2023-08-11T22:59:38.681Z,97.1
2023-08-11T23:02:04.769Z,97
2023-08-11T23:04:30.873Z,97.3
2023-08-11T23:06:56.948Z,97.5
2023-08-11T23:09:23.066Z,97.3
2023-08-11T23:11:49.155Z,97.1
2023-08-11T23:14:15.242Z,97.3
2023-08-11T23:16:40.369Z,97.4
2023-08-11T23:19:06.461Z,97.6
2023-08-11T23:21:32.532Z,97.5
2023-08-11T23:23:58.653Z,97.5
2023-08-11T23:26:24.856Z,97.5
2023-08-11T23:28:50.846Z,97.5
2023-08-11T23:31:16.937Z,97.5
2023-08-11T23:33:43.014Z,97.6
2023-08-11T23:36:09.115Z,97.6
2023-08-11T23:38:35.203Z,97.6
2023-08-11T23:41:01.296Z,97.7
2023-08-11T23:43:27.392Z,97.9
2023-08-11T23:45:53.488Z,98
2023-08-11T23:48:18.602Z,98
2023-08-11T23:53:10.786Z,98.7
2023-08-11T23:55:36.891Z,99.1
2023-08-11T23:58:02.979Z,99.1
